Terminal Aerodrome Forecast
Issued by NWS Wichita, KS

Home | Current Version | Previous Version | Text Only | Print | Product List | Glossary Off
Versions: 1 2 3 4 5 6 7 8 9 10 11 12 13 14 15 16 17

000
FTUS43 KICT 312300
TAFICT
TAF
KICT 312320Z 0100/0124 18025G35KT P6SM FEW060 SCT150
     FM010200 17020G28KT P6SM VCTS BKN050CB OVC120
     FM010700 17010KT P6SM SCT050 OVC120
     FM011700 35013KT P6SM SCT120=

USA.gov is the U.S. government's official web portal to all federal, state and local government web resources and services.